Mc Clellan-Palomar Airport
KCRQ : rendu visible

Aérodrome :











RETROUVEZ-NOUS SUR...

 
LOGIN :

S'inscrire | Disclaimer

   EN    FR    IT 

 









Légende :    VFR   VFR Marginal   IFR   IFR Intensif   IFR Très Intensif
Visi : 
Plafond : 
>= 8 km
>= 3000ft
5 à 8 km
1000 à 3000 ft
1500m à 5 km
500 à 1000 ft
800 à 1500m
200 à 500 ft
< 800m
< 200 ft
Symboles :   Orages  Brouillard  Fortes neiges  Fortes précipitations  Vent > 20 kt






- Altitude de l'aérodrome : 331 ft


KCRQ - Mc Clellan-Palomar

DERNIER METAR :
  • 261753Z 26006KT 9SM CLR 21/16 A2990 RMK AO2 SLP121 T02060156 10211 20167 50001

METARs EXPIRÉS :
  • 261653Z 00000KT 10SM CLR 20/15 A2990 RMK AO2 SLP122 T02000150
  • 261605Z 00000KT 7SM OVC005 18/15 A2990 RMK AO2 T01830150
  • 261553Z 00000KT 6SM HZ OVC004 18/15 A2990 RMK AO2 SLP122 T01780150

TAF KCRQ
Valide du 26 à 18h jusqu'au 27 à 18h UTC


261731Z 2618/2718 26008KT P6SM SKC
FM270200 VRB03KT P6SM SCT007
FM270600 VRB02KT 5SM BR OVC007
FM270900 VRB02KT 1SM BR OVC003
FM271400 VRB03KT 3SM BR OVC004
FM271600 26004KT P6SM SCT007
FIR KZLA / Amérique du Nord



MET'MAP, la Météo Aéronautique d'un coup d'oeil ! - Copyright ORBIFLY Décembre 2007 - Disclaimer

ORBIFLY MET'MAP TEAM :

Programmation & Développement : Alexandra Zaïnal
Sur une idée originale de : Baudouin d'Aumeries
Assistance à la programmation : Marc-Olivier Méhu
Soutien technique & logistique : Manuel Goepfert

Contact : metmap@orbifly.com




SOURCES & CREDITS :

   NOAA       Earth
Advisory